sensor_id;sensor_type;location;lat;lon;timestamp;temperature;humidity
47805;DHT22;33568;45.286;9.900;2023-08-30T00:02:21;21.80;96.50
47805;DHT22;33568;45.286;9.900;2023-08-30T00:04:47;21.80;96.50
47805;DHT22;33568;45.286;9.900;2023-08-30T00:07:14;21.80;96.70
47805;DHT22;33568;45.286;9.900;2023-08-30T00:12:25;21.80;96.80
47805;DHT22;33568;45.286;9.900;2023-08-30T00:15:10;21.80;97.00
47805;DHT22;33568;45.286;9.900;2023-08-30T00:17:37;21.80;97.20
47805;DHT22;33568;45.286;9.900;2023-08-30T00:20:03;21.90;97.10
47805;DHT22;33568;45.286;9.900;2023-08-30T00:22:30;21.90;97.00
47805;DHT22;33568;45.286;9.900;2023-08-30T00:24:57;21.90;97.00
47805;DHT22;33568;45.286;9.900;2023-08-30T00:27:23;21.80;96.80
47805;DHT22;33568;45.286;9.900;2023-08-30T00:29:50;21.80;97.10
47805;DHT22;33568;45.286;9.900;2023-08-30T00:32:16;21.80;97.10
47805;DHT22;33568;45.286;9.900;2023-08-30T00:34:43;21.80;97.10
47805;DHT22;33568;45.286;9.900;2023-08-30T00:37:09;21.80;97.20
47805;DHT22;33568;45.286;9.900;2023-08-30T00:42:27;21.80;97.60
47805;DHT22;33568;45.286;9.900;2023-08-30T00:44:54;21.80;97.40
47805;DHT22;33568;45.286;9.900;2023-08-30T00:47:21;21.80;97.40
47805;DHT22;33568;45.286;9.900;2023-08-30T00:49:47;21.80;97.40
47805;DHT22;33568;45.286;9.900;2023-08-30T00:52:14;21.80;97.40
47805;DHT22;33568;45.286;9.900;2023-08-30T00:54:41;21.80;97.30
47805;DHT22;33568;45.286;9.900;2023-08-30T00:57:08;21.80;97.20
47805;DHT22;33568;45.286;9.900;2023-08-30T00:59:35;21.80;96.90
47805;DHT22;33568;45.286;9.900;2023-08-30T01:02:04;21.70;96.90
47805;DHT22;33568;45.286;9.900;2023-08-30T01:04:52;21.70;97.00
47805;DHT22;33568;45.286;9.900;2023-08-30T01:07:18;21.70;96.80
47805;DHT22;33568;45.286;9.900;2023-08-30T01:10:04;21.70;96.90
47805;DHT22;33568;45.286;9.900;2023-08-30T01:13:09;21.70;96.70
47805;DHT22;33568;45.286;9.900;2023-08-30T01:15:38;21.60;96.90
47805;DHT22;33568;45.286;9.900;2023-08-30T01:18:07;21.60;97.30
47805;DHT22;33568;45.286;9.900;2023-08-30T01:20:37;21.60;97.50
47805;DHT22;33568;45.286;9.900;2023-08-30T01:23:23;21.70;97.70
47805;DHT22;33568;45.286;9.900;2023-08-30T01:26:12;21.60;97.60
47805;DHT22;33568;45.286;9.900;2023-08-30T01:29:01;21.60;97.50
47805;DHT22;33568;45.286;9.900;2023-08-30T01:31:29;21.60;97.90
47805;DHT22;33568;45.286;9.900;2023-08-30T01:34:16;21.60;97.90
47805;DHT22;33568;45.286;9.900;2023-08-30T01:36:43;21.60;97.70
47805;DHT22;33568;45.286;9.900;2023-08-30T01:41:56;21.60;97.80
47805;DHT22;33568;45.286;9.900;2023-08-30T01:44:27;21.60;97.90
47805;DHT22;33568;45.286;9.900;2023-08-30T01:47:12;21.60;97.90
47805;DHT22;33568;45.286;9.900;2023-08-30T01:49:39;21.50;98.00
47805;DHT22;33568;45.286;9.900;2023-08-30T01:52:06;21.60;98.10
47805;DHT22;33568;45.286;9.900;2023-08-30T01:54:33;21.60;98.10
47805;DHT22;33568;45.286;9.900;2023-08-30T01:57:00;21.60;98.00
47805;DHT22;33568;45.286;9.900;2023-08-30T02:02:42;21.60;98.00
47805;DHT22;33568;45.286;9.900;2023-08-30T02:05:08;21.60;98.00
47805;DHT22;33568;45.286;9.900;2023-08-30T02:08:15;21.60;98.00
47805;DHT22;33568;45.286;9.900;2023-08-30T02:10:52;21.50;97.70
47805;DHT22;33568;45.286;9.900;2023-08-30T02:13:25;21.50;98.00
47805;DHT22;33568;45.286;9.900;2023-08-30T02:15:55;21.60;98.00
47805;DHT22;33568;45.286;9.900;2023-08-30T02:18:25;21.60;98.00
47805;DHT22;33568;45.286;9.900;2023-08-30T02:20:57;21.60;97.90
47805;DHT22;33568;45.286;9.900;2023-08-30T02:24:01;21.60;98.00
47805;DHT22;33568;45.286;9.900;2023-08-30T02:26:30;21.60;98.00
47805;DHT22;33568;45.286;9.900;2023-08-30T02:28:57;21.50;98.00
47805;DHT22;33568;45.286;9.900;2023-08-30T02:31:41;21.50;98.00
47805;DHT22;33568;45.286;9.900;2023-08-30T02:36:53;21.50;98.00
47805;DHT22;33568;45.286;9.900;2023-08-30T02:39:19;21.50;98.10
47805;DHT22;33568;45.286;9.900;2023-08-30T02:41:46;21.50;98.30
47805;DHT22;33568;45.286;9.900;2023-08-30T02:44:12;21.50;98.30
47805;DHT22;33568;45.286;9.900;2023-08-30T02:46:39;21.50;98.30
47805;DHT22;33568;45.286;9.900;2023-08-30T02:49:06;21.50;98.20
47805;DHT22;33568;45.286;9.900;2023-08-30T02:51:33;21.50;98.10
47805;DHT22;33568;45.286;9.900;2023-08-30T02:53:59;21.50;98.20
47805;DHT22;33568;45.286;9.900;2023-08-30T02:56:26;21.50;98.10
47805;DHT22;33568;45.286;9.900;2023-08-30T02:58:53;21.50;98.30
47805;DHT22;33568;45.286;9.900;2023-08-30T03:01:56;21.60;98.30
47805;DHT22;33568;45.286;9.900;2023-08-30T03:04:23;21.60;97.90
47805;DHT22;33568;45.286;9.900;2023-08-30T03:06:49;21.60;98.30
47805;DHT22;33568;45.286;9.900;2023-08-30T03:09:16;21.60;98.20
47805;DHT22;33568;45.286;9.900;2023-08-30T03:11:44;21.60;98.10
47805;DHT22;33568;45.286;9.900;2023-08-30T03:14:29;21.70;98.10
47805;DHT22;33568;45.286;9.900;2023-08-30T03:16:55;21.70;98.10
47805;DHT22;33568;45.286;9.900;2023-08-30T03:19:22;21.80;98.20
47805;DHT22;33568;45.286;9.900;2023-08-30T03:21:48;22.00;98.00
47805;DHT22;33568;45.286;9.900;2023-08-30T03:24:15;22.10;97.90
47805;DHT22;33568;45.286;9.900;2023-08-30T03:26:43;22.20;97.50
47805;DHT22;33568;45.286;9.900;2023-08-30T03:29:11;22.10;97.30
47805;DHT22;33568;45.286;9.900;2023-08-30T03:31:38;22.10;97.30
47805;DHT22;33568;45.286;9.900;2023-08-30T03:34:05;22.00;97.40
47805;DHT22;33568;45.286;9.900;2023-08-30T03:36:31;22.10;97.40
47805;DHT22;33568;45.286;9.900;2023-08-30T03:39:35;22.10;97.40
47805;DHT22;33568;45.286;9.900;2023-08-30T03:42:01;22.20;97.10
47805;DHT22;33568;45.286;9.900;2023-08-30T03:44:28;22.30;97.20
47805;DHT22;33568;45.286;9.900;2023-08-30T03:46:54;22.30;97.00
47805;DHT22;33568;45.286;9.900;2023-08-30T03:49:23;22.20;96.90
47805;DHT22;33568;45.286;9.900;2023-08-30T03:51:49;22.10;96.80
47805;DHT22;33568;45.286;9.900;2023-08-30T03:54:16;22.00;96.80
47805;DHT22;33568;45.286;9.900;2023-08-30T03:57:01;22.00;97.10
47805;DHT22;33568;45.286;9.900;2023-08-30T03:59:29;22.10;96.80
47805;DHT22;33568;45.286;9.900;2023-08-30T04:02:33;22.10;97.10
47805;DHT22;33568;45.286;9.900;2023-08-30T04:04:59;22.10;96.90
47805;DHT22;33568;45.286;9.900;2023-08-30T04:07:26;22.10;96.80
47805;DHT22;33568;45.286;9.900;2023-08-30T04:09:52;22.00;96.80
47805;DHT22;33568;45.286;9.900;2023-08-30T04:12:19;22.00;96.80
47805;DHT22;33568;45.286;9.900;2023-08-30T04:15:04;21.90;96.80
47805;DHT22;33568;45.286;9.900;2023-08-30T04:17:32;21.80;96.50
47805;DHT22;33568;45.286;9.900;2023-08-30T04:19:59;21.70;97.00
47805;DHT22;33568;45.286;9.900;2023-08-30T04:22:26;21.60;97.10
47805;DHT22;33568;45.286;9.900;2023-08-30T04:24:53;21.60;97.20
47805;DHT22;33568;45.286;9.900;2023-08-30T04:27:20;21.50;97.20
47805;DHT22;33568;45.286;9.900;2023-08-30T04:29:47;21.50;97.40
47805;DHT22;33568;45.286;9.900;2023-08-30T04:32:14;21.50;97.50
47805;DHT22;33568;45.286;9.900;2023-08-30T04:34:41;21.40;97.60
47805;DHT22;33568;45.286;9.900;2023-08-30T04:37:07;21.40;97.70
47805;DHT22;33568;45.286;9.900;2023-08-30T04:39:52;21.30;98.00
47805;DHT22;33568;45.286;9.900;2023-08-30T04:42:21;21.30;97.60
47805;DHT22;33568;45.286;9.900;2023-08-30T04:44:48;21.40;97.90
47805;DHT22;33568;45.286;9.900;2023-08-30T04:47:14;21.40;97.80
47805;DHT22;33568;45.286;9.900;2023-08-30T04:49:41;21.40;97.80
47805;DHT22;33568;45.286;9.900;2023-08-30T04:52:07;21.40;97.90
47805;DHT22;33568;45.286;9.900;2023-08-30T04:54:35;21.40;97.90
47805;DHT22;33568;45.286;9.900;2023-08-30T04:57:02;21.50;97.80
47805;DHT22;33568;45.286;9.900;2023-08-30T04:59:29;21.50;97.60
47805;DHT22;33568;45.286;9.900;2023-08-30T05:01:56;21.60;97.50
47805;DHT22;33568;45.286;9.900;2023-08-30T05:04:25;21.60;97.40
47805;DHT22;33568;45.286;9.900;2023-08-30T05:07:11;21.60;97.40
47805;DHT22;33568;45.286;9.900;2023-08-30T05:09:58;21.70;96.70
47805;DHT22;33568;45.286;9.900;2023-08-30T05:12:25;21.70;96.80
47805;DHT22;33568;45.286;9.900;2023-08-30T05:15:11;21.70;97.10
47805;DHT22;33568;45.286;9.900;2023-08-30T05:17:37;21.80;96.80
47805;DHT22;33568;45.286;9.900;2023-08-30T05:20:22;21.80;97.00
47805;DHT22;33568;45.286;9.900;2023-08-30T05:23:07;21.80;96.80
47805;DHT22;33568;45.286;9.900;2023-08-30T05:25:33;21.80;96.90
47805;DHT22;33568;45.286;9.900;2023-08-30T05:28:02;21.90;96.80
47805;DHT22;33568;45.286;9.900;2023-08-30T05:30:29;21.90;96.70
47805;DHT22;33568;45.286;9.900;2023-08-30T05:32:58;22.00;96.60
47805;DHT22;33568;45.286;9.900;2023-08-30T05:35:42;22.00;96.60
47805;DHT22;33568;45.286;9.900;2023-08-30T05:38:38;22.00;96.50
47805;DHT22;33568;45.286;9.900;2023-08-30T05:41:14;22.10;96.20
47805;DHT22;33568;45.286;9.900;2023-08-30T05:43:40;22.10;96.50
47805;DHT22;33568;45.286;9.900;2023-08-30T05:46:07;22.20;96.30
47805;DHT22;33568;45.286;9.900;2023-08-30T05:48:41;22.30;96.20
47805;DHT22;33568;45.286;9.900;2023-08-30T05:51:26;22.50;96.00
47805;DHT22;33568;45.286;9.900;2023-08-30T05:53:52;22.60;95.80
47805;DHT22;33568;45.286;9.900;2023-08-30T05:56:19;22.50;95.60
47805;DHT22;33568;45.286;9.900;2023-08-30T05:58:46;22.40;95.60
47805;DHT22;33568;45.286;9.900;2023-08-30T06:01:13;22.40;95.60
47805;DHT22;33568;45.286;9.900;2023-08-30T06:03:39;22.20;95.60
47805;DHT22;33568;45.286;9.900;2023-08-30T06:06:24;22.20;95.80
47805;DHT22;33568;45.286;9.900;2023-08-30T06:08:51;22.10;95.90
47805;DHT22;33568;45.286;9.900;2023-08-30T06:11:17;22.30;96.00
47805;DHT22;33568;45.286;9.900;2023-08-30T06:13:44;22.50;95.80
47805;DHT22;33568;45.286;9.900;2023-08-30T06:16:10;22.60;95.60
47805;DHT22;33568;45.286;9.900;2023-08-30T06:18:37;22.70;95.40
47805;DHT22;33568;45.286;9.900;2023-08-30T06:21:03;22.90;95.20
47805;DHT22;33568;45.286;9.900;2023-08-30T06:23:30;23.00;95.00
47805;DHT22;33568;45.286;9.900;2023-08-30T06:25:57;23.10;95.00
47805;DHT22;33568;45.286;9.900;2023-08-30T06:28:24;23.20;94.70
47805;DHT22;33568;45.286;9.900;2023-08-30T06:33:36;23.30;94.30
47805;DHT22;33568;45.286;9.900;2023-08-30T06:36:03;23.30;94.20
47805;DHT22;33568;45.286;9.900;2023-08-30T06:38:30;23.40;94.10
47805;DHT22;33568;45.286;9.900;2023-08-30T06:43:42;23.30;93.80
47805;DHT22;33568;45.286;9.900;2023-08-30T06:46:09;23.20;93.80
47805;DHT22;33568;45.286;9.900;2023-08-30T06:48:35;23.20;93.70
47805;DHT22;33568;45.286;9.900;2023-08-30T06:51:21;23.10;93.70
47805;DHT22;33568;45.286;9.900;2023-08-30T06:53:47;23.10;92.40
47805;DHT22;33568;45.286;9.900;2023-08-30T06:56:14;23.10;93.50
47805;DHT22;33568;45.286;9.900;2023-08-30T06:58:41;23.20;93.50
47805;DHT22;33568;45.286;9.900;2023-08-30T07:01:26;23.20;93.20
47805;DHT22;33568;45.286;9.900;2023-08-30T07:04:11;23.10;93.00
47805;DHT22;33568;45.286;9.900;2023-08-30T07:06:38;23.00;93.20
47805;DHT22;33568;45.286;9.900;2023-08-30T07:09:23;23.10;93.20
47805;DHT22;33568;45.286;9.900;2023-08-30T07:11:55;23.20;92.20
47805;DHT22;33568;45.286;9.900;2023-08-30T07:14:21;23.40;92.70
47805;DHT22;33568;45.286;9.900;2023-08-30T07:16:48;23.40;92.50
47805;DHT22;33568;45.286;9.900;2023-08-30T07:19:34;23.50;92.10
47805;DHT22;33568;45.286;9.900;2023-08-30T07:22:19;23.60;90.60
47805;DHT22;33568;45.286;9.900;2023-08-30T07:27:32;23.60;90.50
47805;DHT22;33568;45.286;9.900;2023-08-30T07:30:18;23.70;90.50
47805;DHT22;33568;45.286;9.900;2023-08-30T07:32:44;23.90;90.30
47805;DHT22;33568;45.286;9.900;2023-08-30T07:35:48;24.00;90.10
47805;DHT22;33568;45.286;9.900;2023-08-30T07:38:15;24.20;89.90
47805;DHT22;33568;45.286;9.900;2023-08-30T07:41:01;24.30;89.30
47805;DHT22;33568;45.286;9.900;2023-08-30T07:43:28;24.30;87.90
47805;DHT22;33568;45.286;9.900;2023-08-30T07:45:55;24.40;87.40
47805;DHT22;33568;45.286;9.900;2023-08-30T07:48:25;24.50;88.00
47805;DHT22;33568;45.286;9.900;2023-08-30T07:50:51;24.50;87.30
47805;DHT22;33568;45.286;9.900;2023-08-30T07:53:18;24.40;86.10
47805;DHT22;33568;45.286;9.900;2023-08-30T07:55:48;24.40;85.20
47805;DHT22;33568;45.286;9.900;2023-08-30T07:58:17;24.30;83.90
47805;DHT22;33568;45.286;9.900;2023-08-30T08:01:02;24.10;83.80
47805;DHT22;33568;45.286;9.900;2023-08-30T08:03:29;24.00;83.80
47805;DHT22;33568;45.286;9.900;2023-08-30T08:06:14;24.20;84.80
47805;DHT22;33568;45.286;9.900;2023-08-30T08:08:40;24.40;85.30
47805;DHT22;33568;45.286;9.900;2023-08-30T08:11:06;24.60;85.50
47805;DHT22;33568;45.286;9.900;2023-08-30T08:13:33;24.90;84.90
47805;DHT22;33568;45.286;9.900;2023-08-30T08:16:00;25.00;84.40
47805;DHT22;33568;45.286;9.900;2023-08-30T08:18:26;25.20;82.80
47805;DHT22;33568;45.286;9.900;2023-08-30T08:20:53;25.20;81.30
47805;DHT22;33568;45.286;9.900;2023-08-30T08:23:19;25.20;81.30
47805;DHT22;33568;45.286;9.900;2023-08-30T08:25:46;25.40;80.10
47805;DHT22;33568;45.286;9.900;2023-08-30T08:28:12;25.40;78.60
47805;DHT22;33568;45.286;9.900;2023-08-30T08:30:39;25.40;78.70
47805;DHT22;33568;45.286;9.900;2023-08-30T08:33:23;25.50;77.80
47805;DHT22;33568;45.286;9.900;2023-08-30T08:35:50;25.70;77.00
47805;DHT22;33568;45.286;9.900;2023-08-30T08:38:35;25.70;76.90
47805;DHT22;33568;45.286;9.900;2023-08-30T08:41:06;25.80;76.70
47805;DHT22;33568;45.286;9.900;2023-08-30T08:43:33;26.00;76.20
47805;DHT22;33568;45.286;9.900;2023-08-30T08:46:03;26.20;75.60
47805;DHT22;33568;45.286;9.900;2023-08-30T08:48:38;26.20;73.90
47805;DHT22;33568;45.286;9.900;2023-08-30T08:51:06;26.40;73.60
47805;DHT22;33568;45.286;9.900;2023-08-30T08:53:32;26.50;73.90
47805;DHT22;33568;45.286;9.900;2023-08-30T08:56:00;26.60;73.60
47805;DHT22;33568;45.286;9.900;2023-08-30T08:58:47;26.70;73.10
47805;DHT22;33568;45.286;9.900;2023-08-30T09:01:14;26.80;72.80
47805;DHT22;33568;45.286;9.900;2023-08-30T09:03:41;27.00;72.50
47805;DHT22;33568;45.286;9.900;2023-08-30T09:06:08;27.20;72.20
47805;DHT22;33568;45.286;9.900;2023-08-30T09:08:34;27.20;72.00
47805;DHT22;33568;45.286;9.900;2023-08-30T09:11:01;27.20;72.00
47805;DHT22;33568;45.286;9.900;2023-08-30T09:13:27;27.40;72.20
47805;DHT22;33568;45.286;9.900;2023-08-30T09:15:56;27.60;71.60
47805;DHT22;33568;45.286;9.900;2023-08-30T09:18:23;27.60;71.30
47805;DHT22;33568;45.286;9.900;2023-08-30T09:21:04;27.70;71.50
47805;DHT22;33568;45.286;9.900;2023-08-30T09:23:30;27.80;70.50
47805;DHT22;33568;45.286;9.900;2023-08-30T09:25:57;27.80;70.10
47805;DHT22;33568;45.286;9.900;2023-08-30T09:28:23;27.90;70.40
47805;DHT22;33568;45.286;9.900;2023-08-30T09:30:51;28.00;69.80
47805;DHT22;33568;45.286;9.900;2023-08-30T09:36:15;28.30;67.40
47805;DHT22;33568;45.286;9.900;2023-08-30T09:38:48;28.40;68.00
47805;DHT22;33568;45.286;9.900;2023-08-30T09:41:16;28.60;66.70
47805;DHT22;33568;45.286;9.900;2023-08-30T09:43:43;28.70;67.10
47805;DHT22;33568;45.286;9.900;2023-08-30T09:46:28;28.80;66.70
47805;DHT22;33568;45.286;9.900;2023-08-30T09:51:42;28.90;65.10
47805;DHT22;33568;45.286;9.900;2023-08-30T09:54:27;28.80;64.60
47805;DHT22;33568;45.286;9.900;2023-08-30T09:56:55;28.70;64.60
47805;DHT22;33568;45.286;9.900;2023-08-30T09:59:24;28.70;64.70
47805;DHT22;33568;45.286;9.900;2023-08-30T10:01:51;28.90;65.20
47805;DHT22;33568;45.286;9.900;2023-08-30T10:04:19;29.00;64.90
47805;DHT22;33568;45.286;9.900;2023-08-30T10:06:46;29.10;64.70
47805;DHT22;33568;45.286;9.900;2023-08-30T10:09:32;29.10;64.30
47805;DHT22;33568;45.286;9.900;2023-08-30T10:14:43;29.20;64.50
47805;DHT22;33568;45.286;9.900;2023-08-30T10:17:12;29.40;64.50
47805;DHT22;33568;45.286;9.900;2023-08-30T10:20:17;29.40;64.40
47805;DHT22;33568;45.286;9.900;2023-08-30T10:23:04;29.60;64.80
47805;DHT22;33568;45.286;9.900;2023-08-30T10:25:51;29.80;63.80
47805;DHT22;33568;45.286;9.900;2023-08-30T10:28:38;30.10;63.30
47805;DHT22;33568;45.286;9.900;2023-08-30T10:31:24;30.00;63.20
47805;DHT22;33568;45.286;9.900;2023-08-30T10:33:53;29.90;63.60
47805;DHT22;33568;45.286;9.900;2023-08-30T10:36:21;29.80;63.80
47805;DHT22;33568;45.286;9.900;2023-08-30T10:38:58;30.00;64.20
47805;DHT22;33568;45.286;9.900;2023-08-30T10:41:26;30.00;62.60
47805;DHT22;33568;45.286;9.900;2023-08-30T10:43:55;30.10;64.00
47805;DHT22;33568;45.286;9.900;2023-08-30T10:49:18;30.10;62.00
47805;DHT22;33568;45.286;9.900;2023-08-30T10:51:45;30.10;62.70
47805;DHT22;33568;45.286;9.900;2023-08-30T10:54:14;30.20;63.00
47805;DHT22;33568;45.286;9.900;2023-08-30T10:56:48;30.30;63.50
47805;DHT22;33568;45.286;9.900;2023-08-30T10:59:33;30.50;62.50
47805;DHT22;33568;45.286;9.900;2023-08-30T11:02:18;30.80;62.40
47805;DHT22;33568;45.286;9.900;2023-08-30T11:04:45;31.00;60.60
47805;DHT22;33568;45.286;9.900;2023-08-30T11:07:30;31.10;61.00
47805;DHT22;33568;45.286;9.900;2023-08-30T11:09:57;31.10;60.70
47805;DHT22;33568;45.286;9.900;2023-08-30T11:12:23;31.20;60.30
47805;DHT22;33568;45.286;9.900;2023-08-30T11:14:54;31.10;60.10
47805;DHT22;33568;45.286;9.900;2023-08-30T11:17:21;31.20;61.20
47805;DHT22;33568;45.286;9.900;2023-08-30T11:19:51;31.30;61.00
47805;DHT22;33568;45.286;9.900;2023-08-30T11:22:23;31.40;60.00
47805;DHT22;33568;45.286;9.900;2023-08-30T11:25:09;31.40;60.30
47805;DHT22;33568;45.286;9.900;2023-08-30T11:28:02;31.20;58.80
47805;DHT22;33568;45.286;9.900;2023-08-30T11:30:29;31.20;58.30
47805;DHT22;33568;45.286;9.900;2023-08-30T11:32:57;31.20;60.10
47805;DHT22;33568;45.286;9.900;2023-08-30T11:35:24;31.10;58.90
47805;DHT22;33568;45.286;9.900;2023-08-30T11:37:51;31.10;59.80
47805;DHT22;33568;45.286;9.900;2023-08-30T11:40:17;31.20;59.80
47805;DHT22;33568;45.286;9.900;2023-08-30T11:42:44;31.30;59.50
47805;DHT22;33568;45.286;9.900;2023-08-30T11:45:11;31.50;58.60
47805;DHT22;33568;45.286;9.900;2023-08-30T11:47:40;31.70;58.00
47805;DHT22;33568;45.286;9.900;2023-08-30T11:50:08;31.80;58.60
47805;DHT22;33568;45.286;9.900;2023-08-30T11:52:36;31.80;58.50
47805;DHT22;33568;45.286;9.900;2023-08-30T11:58:09;31.90;58.20
47805;DHT22;33568;45.286;9.900;2023-08-30T12:00:41;31.80;57.60
47805;DHT22;33568;45.286;9.900;2023-08-30T12:03:27;31.60;57.10
47805;DHT22;33568;45.286;9.900;2023-08-30T12:05:54;31.40;56.00
47805;DHT22;33568;45.286;9.900;2023-08-30T12:08:24;31.30;56.90
47805;DHT22;33568;45.286;9.900;2023-08-30T12:10:52;31.20;56.90
47805;DHT22;33568;45.286;9.900;2023-08-30T12:14:01;31.10;57.70
47805;DHT22;33568;45.286;9.900;2023-08-30T12:16:28;31.30;55.30
47805;DHT22;33568;45.286;9.900;2023-08-30T12:19:31;31.30;56.80
47805;DHT22;33568;45.286;9.900;2023-08-30T12:22:05;31.20;56.50
47805;DHT22;33568;45.286;9.900;2023-08-30T12:30:15;30.70;56.60
47805;DHT22;33568;45.286;9.900;2023-08-30T12:32:43;30.60;56.60
47805;DHT22;33568;45.286;9.900;2023-08-30T12:35:10;30.50;55.90
47805;DHT22;33568;45.286;9.900;2023-08-30T12:37:37;30.40;56.60
47805;DHT22;33568;45.286;9.900;2023-08-30T12:40:22;30.40;56.90
47805;DHT22;33568;45.286;9.900;2023-08-30T12:42:49;30.60;57.10
47805;DHT22;33568;45.286;9.900;2023-08-30T12:45:16;30.50;56.50
47805;DHT22;33568;45.286;9.900;2023-08-30T12:47:42;30.40;56.10
47805;DHT22;33568;45.286;9.900;2023-08-30T12:50:09;30.20;55.70
47805;DHT22;33568;45.286;9.900;2023-08-30T12:52:36;30.10;57.10
47805;DHT22;33568;45.286;9.900;2023-08-30T12:57:47;30.00;57.40
47805;DHT22;33568;45.286;9.900;2023-08-30T13:00:14;29.90;57.10
47805;DHT22;33568;45.286;9.900;2023-08-30T13:02:41;29.90;56.60
47805;DHT22;33568;45.286;9.900;2023-08-30T13:05:07;29.70;56.50
47805;DHT22;33568;45.286;9.900;2023-08-30T13:07:34;29.70;56.60
47805;DHT22;33568;45.286;9.900;2023-08-30T13:10:00;29.60;56.50
47805;DHT22;33568;45.286;9.900;2023-08-30T13:12:26;29.60;56.50
47805;DHT22;33568;45.286;9.900;2023-08-30T13:14:53;29.60;56.80
47805;DHT22;33568;45.286;9.900;2023-08-30T13:17:19;29.60;56.50
47805;DHT22;33568;45.286;9.900;2023-08-30T13:19:46;29.50;56.10
47805;DHT22;33568;45.286;9.900;2023-08-30T13:22:12;29.60;56.10
47805;DHT22;33568;45.286;9.900;2023-08-30T13:24:39;29.70;56.10
47805;DHT22;33568;45.286;9.900;2023-08-30T13:27:07;29.70;56.20
47805;DHT22;33568;45.286;9.900;2023-08-30T13:29:34;29.70;55.70
47805;DHT22;33568;45.286;9.900;2023-08-30T13:32:00;29.80;55.60
47805;DHT22;33568;45.286;9.900;2023-08-30T13:34:27;30.00;55.70
47805;DHT22;33568;45.286;9.900;2023-08-30T13:36:53;30.20;55.50
47805;DHT22;33568;45.286;9.900;2023-08-30T13:39:20;30.20;55.10
47805;DHT22;33568;45.286;9.900;2023-08-30T13:41:47;30.20;55.00
47805;DHT22;33568;45.286;9.900;2023-08-30T13:44:14;30.20;54.80
47805;DHT22;33568;45.286;9.900;2023-08-30T13:50:04;30.30;55.80
47805;DHT22;33568;45.286;9.900;2023-08-30T13:52:31;30.40;56.30
47805;DHT22;33568;45.286;9.900;2023-08-30T13:54:59;30.40;56.80
47805;DHT22;33568;45.286;9.900;2023-08-30T13:57:25;30.50;56.50
47805;DHT22;33568;45.286;9.900;2023-08-30T13:59:52;30.30;55.90
47805;DHT22;33568;45.286;9.900;2023-08-30T14:02:18;30.30;56.20
47805;DHT22;33568;45.286;9.900;2023-08-30T14:04:45;30.40;56.30
47805;DHT22;33568;45.286;9.900;2023-08-30T14:07:12;30.30;55.90
47805;DHT22;33568;45.286;9.900;2023-08-30T14:09:38;30.40;56.10
47805;DHT22;33568;45.286;9.900;2023-08-30T14:12:05;30.40;56.10
47805;DHT22;33568;45.286;9.900;2023-08-30T14:14:50;30.40;56.10
47805;DHT22;33568;45.286;9.900;2023-08-30T14:17:16;30.20;56.00
47805;DHT22;33568;45.286;9.900;2023-08-30T14:20:02;30.10;56.60
47805;DHT22;33568;45.286;9.900;2023-08-30T14:22:29;30.00;56.50
47805;DHT22;33568;45.286;9.900;2023-08-30T14:24:55;30.00;56.50
47805;DHT22;33568;45.286;9.900;2023-08-30T14:27:22;30.00;56.60
47805;DHT22;33568;45.286;9.900;2023-08-30T14:29:48;30.10;56.70
47805;DHT22;33568;45.286;9.900;2023-08-30T14:32:15;30.20;57.50
47805;DHT22;33568;45.286;9.900;2023-08-30T14:34:41;30.20;56.60
47805;DHT22;33568;45.286;9.900;2023-08-30T14:37:26;30.30;56.50
47805;DHT22;33568;45.286;9.900;2023-08-30T14:39:53;30.40;56.70
47805;DHT22;33568;45.286;9.900;2023-08-30T14:42:20;30.40;56.60
47805;DHT22;33568;45.286;9.900;2023-08-30T14:44:50;30.20;57.10
47805;DHT22;33568;45.286;9.900;2023-08-30T14:47:17;30.20;56.20
47805;DHT22;33568;45.286;9.900;2023-08-30T14:49:45;30.00;56.30
47805;DHT22;33568;45.286;9.900;2023-08-30T14:52:13;29.90;57.00
47805;DHT22;33568;45.286;9.900;2023-08-30T14:54:40;30.00;56.90
47805;DHT22;33568;45.286;9.900;2023-08-30T14:57:07;30.00;56.60
47805;DHT22;33568;45.286;9.900;2023-08-30T14:59:33;30.10;56.60
47805;DHT22;33568;45.286;9.900;2023-08-30T15:02:00;30.10;56.50
47805;DHT22;33568;45.286;9.900;2023-08-30T15:04:26;30.10;56.10
47805;DHT22;33568;45.286;9.900;2023-08-30T15:06:52;30.20;55.70
47805;DHT22;33568;45.286;9.900;2023-08-30T15:09:38;30.20;55.60
47805;DHT22;33568;45.286;9.900;2023-08-30T15:12:23;30.10;55.60
47805;DHT22;33568;45.286;9.900;2023-08-30T15:14:50;30.20;56.00
47805;DHT22;33568;45.286;9.900;2023-08-30T15:17:18;30.30;55.70
47805;DHT22;33568;45.286;9.900;2023-08-30T15:20:04;30.10;55.80
47805;DHT22;33568;45.286;9.900;2023-08-30T15:22:30;30.10;55.90
47805;DHT22;33568;45.286;9.900;2023-08-30T15:24:58;30.20;55.70
47805;DHT22;33568;45.286;9.900;2023-08-30T15:27:25;30.20;55.20
47805;DHT22;33568;45.286;9.900;2023-08-30T15:29:51;30.30;55.50
47805;DHT22;33568;45.286;9.900;2023-08-30T15:32:23;30.30;56.20
47805;DHT22;33568;45.286;9.900;2023-08-30T15:35:09;30.20;56.20
47805;DHT22;33568;45.286;9.900;2023-08-30T15:37:36;30.10;56.50
47805;DHT22;33568;45.286;9.900;2023-08-30T15:40:04;30.10;56.70
47805;DHT22;33568;45.286;9.900;2023-08-30T15:43:08;30.10;57.00
47805;DHT22;33568;45.286;9.900;2023-08-30T15:45:35;30.00;57.20
47805;DHT22;33568;45.286;9.900;2023-08-30T15:48:01;29.90;57.00
47805;DHT22;33568;45.286;9.900;2023-08-30T15:50:28;29.90;56.70
47805;DHT22;33568;45.286;9.900;2023-08-30T15:52:54;29.80;56.40
47805;DHT22;33568;45.286;9.900;2023-08-30T15:55:39;29.80;56.60
47805;DHT22;33568;45.286;9.900;2023-08-30T15:58:06;29.80;56.80
47805;DHT22;33568;45.286;9.900;2023-08-30T16:00:52;29.80;56.50
47805;DHT22;33568;45.286;9.900;2023-08-30T16:03:18;29.80;56.80
47805;DHT22;33568;45.286;9.900;2023-08-30T16:08:49;29.60;56.10
47805;DHT22;33568;45.286;9.900;2023-08-30T16:11:53;29.50;56.90
47805;DHT22;33568;45.286;9.900;2023-08-30T16:14:38;29.50;57.30
47805;DHT22;33568;45.286;9.900;2023-08-30T16:17:04;29.50;57.60
47805;DHT22;33568;45.286;9.900;2023-08-30T16:19:31;29.50;57.40
47805;DHT22;33568;45.286;9.900;2023-08-30T16:22:04;29.50;57.80
47805;DHT22;33568;45.286;9.900;2023-08-30T16:24:31;29.50;57.90
47805;DHT22;33568;45.286;9.900;2023-08-30T16:26:58;29.40;58.10
47805;DHT22;33568;45.286;9.900;2023-08-30T16:29:26;29.30;58.40
47805;DHT22;33568;45.286;9.900;2023-08-30T16:31:53;29.20;58.30
47805;DHT22;33568;45.286;9.900;2023-08-30T16:34:19;29.20;58.30
47805;DHT22;33568;45.286;9.900;2023-08-30T16:36:47;29.10;58.10
47805;DHT22;33568;45.286;9.900;2023-08-30T16:39:18;29.10;58.00
47805;DHT22;33568;45.286;9.900;2023-08-30T16:41:45;29.10;58.20
47805;DHT22;33568;45.286;9.900;2023-08-30T16:44:11;29.00;58.50
47805;DHT22;33568;45.286;9.900;2023-08-30T16:46:38;29.00;58.60
47805;DHT22;33568;45.286;9.900;2023-08-30T16:49:23;28.90;58.80